sensor_id;sensor_type;location;lat;lon;timestamp;P1;durP1;ratioP1;P2;durP2;ratioP2
84484;SDS011;74707;42.864;0.362;2023-12-29T00:00:52;2.47;;;0.50;;
84484;SDS011;74707;42.864;0.362;2023-12-29T00:03:18;0.38;;;0.30;;
84484;SDS011;74707;42.864;0.362;2023-12-29T00:05:44;0.90;;;0.55;;
84484;SDS011;74707;42.864;0.362;2023-12-29T00:08:10;0.20;;;0.20;;
84484;SDS011;74707;42.864;0.362;2023-12-29T00:10:36;0.20;;;0.20;;
84484;SDS011;74707;42.864;0.362;2023-12-29T00:13:03;0.25;;;0.17;;
84484;SDS011;74707;42.864;0.362;2023-12-29T00:15:29;2.65;;;0.40;;
84484;SDS011;74707;42.864;0.362;2023-12-29T00:18:00;0.30;;;0.30;;
84484;SDS011;74707;42.864;0.362;2023-12-29T00:20:26;0.25;;;0.25;;
84484;SDS011;74707;42.864;0.362;2023-12-29T00:22:54;0.20;;;0.20;;
84484;SDS011;74707;42.864;0.362;2023-12-29T00:25:23;0.52;;;0.20;;
84484;SDS011;74707;42.864;0.362;2023-12-29T00:27:49;0.22;;;0.22;;
84484;SDS011;74707;42.864;0.362;2023-12-29T00:30:15;0.17;;;0.17;;
84484;SDS011;74707;42.864;0.362;2023-12-29T00:32:41;0.20;;;0.20;;
84484;SDS011;74707;42.864;0.362;2023-12-29T00:35:07;0.40;;;0.40;;
84484;SDS011;74707;42.864;0.362;2023-12-29T00:37:34;0.32;;;0.20;;
84484;SDS011;74707;42.864;0.362;2023-12-29T00:40:00;1.25;;;0.40;;
84484;SDS011;74707;42.864;0.362;2023-12-29T00:42:26;0.38;;;0.30;;
84484;SDS011;74707;42.864;0.362;2023-12-29T00:44:52;1.05;;;0.20;;
84484;SDS011;74707;42.864;0.362;2023-12-29T00:47:18;0.10;;;0.10;;
84484;SDS011;74707;42.864;0.362;2023-12-29T00:49:44;0.20;;;0.20;;
84484;SDS011;74707;42.864;0.362;2023-12-29T00:52:10;2.40;;;0.38;;
84484;SDS011;74707;42.864;0.362;2023-12-29T00:54:36;0.52;;;0.50;;
84484;SDS011;74707;42.864;0.362;2023-12-29T00:57:03;0.52;;;0.40;;
84484;SDS011;74707;42.864;0.362;2023-12-29T00:59:29;1.38;;;0.85;;
84484;SDS011;74707;42.864;0.362;2023-12-29T01:01:55;0.20;;;0.20;;
84484;SDS011;74707;42.864;0.362;2023-12-29T01:04:21;0.30;;;0.30;;
84484;SDS011;74707;42.864;0.362;2023-12-29T01:06:47;0.20;;;0.20;;
84484;SDS011;74707;42.864;0.362;2023-12-29T01:09:13;0.40;;;0.40;;
84484;SDS011;74707;42.864;0.362;2023-12-29T01:11:39;0.20;;;0.20;;
84484;SDS011;74707;42.864;0.362;2023-12-29T01:14:06;0.50;;;0.30;;
84484;SDS011;74707;42.864;0.362;2023-12-29T01:16:32;0.30;;;0.30;;
84484;SDS011;74707;42.864;0.362;2023-12-29T01:18:58;0.47;;;0.45;;
84484;SDS011;74707;42.864;0.362;2023-12-29T01:21:24;4.15;;;0.43;;
84484;SDS011;74707;42.864;0.362;2023-12-29T01:23:50;0.10;;;0.10;;
84484;SDS011;74707;42.864;0.362;2023-12-29T01:26:16;0.10;;;0.10;;
84484;SDS011;74707;42.864;0.362;2023-12-29T01:28:42;0.20;;;0.20;;
84484;SDS011;74707;42.864;0.362;2023-12-29T01:31:08;0.28;;;0.28;;
84484;SDS011;74707;42.864;0.362;2023-12-29T01:33:36;0.30;;;0.20;;
84484;SDS011;74707;42.864;0.362;2023-12-29T01:36:02;0.13;;;0.13;;
84484;SDS011;74707;42.864;0.362;2023-12-29T01:38:28;0.32;;;0.32;;
84484;SDS011;74707;42.864;0.362;2023-12-29T01:40:54;0.30;;;0.20;;
84484;SDS011;74707;42.864;0.362;2023-12-29T01:43:21;0.82;;;0.20;;
84484;SDS011;74707;42.864;0.362;2023-12-29T01:45:47;0.20;;;0.20;;
84484;SDS011;74707;42.864;0.362;2023-12-29T01:48:13;2.92;;;0.25;;
84484;SDS011;74707;42.864;0.362;2023-12-29T01:50:39;0.95;;;0.25;;
84484;SDS011;74707;42.864;0.362;2023-12-29T01:53:05;0.30;;;0.30;;
84484;SDS011;74707;42.864;0.362;2023-12-29T01:55:32;0.20;;;0.20;;
84484;SDS011;74707;42.864;0.362;2023-12-29T01:57:58;0.28;;;0.22;;
84484;SDS011;74707;42.864;0.362;2023-12-29T02:00:25;0.38;;;0.10;;
84484;SDS011;74707;42.864;0.362;2023-12-29T02:02:51;0.20;;;0.20;;
84484;SDS011;74707;42.864;0.362;2023-12-29T02:05:17;0.20;;;0.20;;
84484;SDS011;74707;42.864;0.362;2023-12-29T02:07:46;0.35;;;0.20;;
84484;SDS011;74707;42.864;0.362;2023-12-29T02:10:12;0.10;;;0.10;;
84484;SDS011;74707;42.864;0.362;2023-12-29T02:12:40;0.20;;;0.20;;
84484;SDS011;74707;42.864;0.362;2023-12-29T02:15:07;2.10;;;0.50;;
84484;SDS011;74707;42.864;0.362;2023-12-29T02:17:47;0.30;;;0.30;;
84484;SDS011;74707;42.864;0.362;2023-12-29T02:20:14;0.20;;;0.20;;
84484;SDS011;74707;42.864;0.362;2023-12-29T02:22:40;0.25;;;0.25;;
84484;SDS011;74707;42.864;0.362;2023-12-29T02:25:06;1.85;;;0.20;;
84484;SDS011;74707;42.864;0.362;2023-12-29T02:30:09;0.22;;;0.15;;
84484;SDS011;74707;42.864;0.362;2023-12-29T02:32:36;0.32;;;0.10;;
84484;SDS011;74707;42.864;0.362;2023-12-29T02:35:05;0.15;;;0.15;;
84484;SDS011;74707;42.864;0.362;2023-12-29T02:37:33;0.30;;;0.30;;
84484;SDS011;74707;42.864;0.362;2023-12-29T02:39:59;0.35;;;0.35;;
84484;SDS011;74707;42.864;0.362;2023-12-29T02:42:25;0.30;;;0.30;;
84484;SDS011;74707;42.864;0.362;2023-12-29T02:44:52;1.88;;;0.20;;
84484;SDS011;74707;42.864;0.362;2023-12-29T02:47:18;0.30;;;0.30;;
84484;SDS011;74707;42.864;0.362;2023-12-29T02:49:44;0.55;;;0.40;;
84484;SDS011;74707;42.864;0.362;2023-12-29T02:52:10;0.35;;;0.20;;
84484;SDS011;74707;42.864;0.362;2023-12-29T02:54:36;2.30;;;0.20;;
84484;SDS011;74707;42.864;0.362;2023-12-29T02:57:03;0.10;;;0.10;;
84484;SDS011;74707;42.864;0.362;2023-12-29T02:59:29;0.10;;;0.10;;
84484;SDS011;74707;42.864;0.362;2023-12-29T03:01:55;0.20;;;0.20;;
84484;SDS011;74707;42.864;0.362;2023-12-29T03:04:21;0.43;;;0.30;;
84484;SDS011;74707;42.864;0.362;2023-12-29T03:06:47;0.15;;;0.13;;
84484;SDS011;74707;42.864;0.362;2023-12-29T03:09:13;0.10;;;0.10;;
84484;SDS011;74707;42.864;0.362;2023-12-29T03:11:40;0.20;;;0.20;;
84484;SDS011;74707;42.864;0.362;2023-12-29T03:14:06;3.33;;;0.25;;
84484;SDS011;74707;42.864;0.362;2023-12-29T03:16:32;0.20;;;0.20;;
84484;SDS011;74707;42.864;0.362;2023-12-29T03:18:58;0.10;;;0.10;;
84484;SDS011;74707;42.864;0.362;2023-12-29T03:21:24;0.43;;;0.28;;
84484;SDS011;74707;42.864;0.362;2023-12-29T03:23:50;0.65;;;0.22;;
84484;SDS011;74707;42.864;0.362;2023-12-29T03:26:16;0.20;;;0.10;;
84484;SDS011;74707;42.864;0.362;2023-12-29T03:28:42;0.10;;;0.10;;
84484;SDS011;74707;42.864;0.362;2023-12-29T03:31:08;0.10;;;0.10;;
84484;SDS011;74707;42.864;0.362;2023-12-29T03:33:35;0.22;;;0.20;;
84484;SDS011;74707;42.864;0.362;2023-12-29T03:36:01;0.15;;;0.15;;
84484;SDS011;74707;42.864;0.362;2023-12-29T03:38:27;0.30;;;0.30;;
84484;SDS011;74707;42.864;0.362;2023-12-29T03:40:53;0.70;;;0.30;;
84484;SDS011;74707;42.864;0.362;2023-12-29T03:43:19;0.90;;;0.25;;
84484;SDS011;74707;42.864;0.362;2023-12-29T03:45:45;0.28;;;0.20;;
84484;SDS011;74707;42.864;0.362;2023-12-29T03:48:11;0.15;;;0.15;;
84484;SDS011;74707;42.864;0.362;2023-12-29T03:50:37;0.20;;;0.20;;
84484;SDS011;74707;42.864;0.362;2023-12-29T03:53:04;0.10;;;0.10;;
84484;SDS011;74707;42.864;0.362;2023-12-29T03:55:30;0.40;;;0.20;;
84484;SDS011;74707;42.864;0.362;2023-12-29T03:57:56;0.15;;;0.15;;
84484;SDS011;74707;42.864;0.362;2023-12-29T04:00:22;0.20;;;0.20;;
84484;SDS011;74707;42.864;0.362;2023-12-29T04:02:48;0.03;;;0.03;;
84484;SDS011;74707;42.864;0.362;2023-12-29T04:05:14;0.20;;;0.20;;
84484;SDS011;74707;42.864;0.362;2023-12-29T04:07:40;0.20;;;0.10;;
84484;SDS011;74707;42.864;0.362;2023-12-29T04:10:07;1.80;;;0.35;;
84484;SDS011;74707;42.864;0.362;2023-12-29T04:12:34;0.20;;;0.20;;
84484;SDS011;74707;42.864;0.362;2023-12-29T04:15:00;0.20;;;0.20;;
84484;SDS011;74707;42.864;0.362;2023-12-29T04:17:26;0.73;;;0.45;;
84484;SDS011;74707;42.864;0.362;2023-12-29T04:19:52;1.17;;;0.40;;
84484;SDS011;74707;42.864;0.362;2023-12-29T04:22:19;0.50;;;0.40;;
84484;SDS011;74707;42.864;0.362;2023-12-29T04:24:45;0.32;;;0.20;;
84484;SDS011;74707;42.864;0.362;2023-12-29T04:27:11;0.15;;;0.15;;
84484;SDS011;74707;42.864;0.362;2023-12-29T04:29:37;2.83;;;0.17;;
84484;SDS011;74707;42.864;0.362;2023-12-29T04:32:04;0.13;;;0.13;;
84484;SDS011;74707;42.864;0.362;2023-12-29T04:34:30;0.38;;;0.28;;
84484;SDS011;74707;42.864;0.362;2023-12-29T04:36:56;2.08;;;0.30;;
84484;SDS011;74707;42.864;0.362;2023-12-29T04:39:22;0.22;;;0.10;;
84484;SDS011;74707;42.864;0.362;2023-12-29T04:41:49;0.17;;;0.17;;
84484;SDS011;74707;42.864;0.362;2023-12-29T04:44:16;0.17;;;0.17;;
84484;SDS011;74707;42.864;0.362;2023-12-29T04:46:42;0.28;;;0.13;;
84484;SDS011;74707;42.864;0.362;2023-12-29T04:49:08;0.20;;;0.20;;
84484;SDS011;74707;42.864;0.362;2023-12-29T04:51:34;0.22;;;0.10;;
84484;SDS011;74707;42.864;0.362;2023-12-29T04:54:01;0.15;;;0.10;;
84484;SDS011;74707;42.864;0.362;2023-12-29T04:56:27;0.45;;;0.25;;
84484;SDS011;74707;42.864;0.362;2023-12-29T04:58:53;0.20;;;0.20;;
84484;SDS011;74707;42.864;0.362;2023-12-29T05:01:21;0.28;;;0.20;;
84484;SDS011;74707;42.864;0.362;2023-12-29T05:03:47;0.20;;;0.20;;
84484;SDS011;74707;42.864;0.362;2023-12-29T05:06:13;0.20;;;0.20;;
84484;SDS011;74707;42.864;0.362;2023-12-29T05:08:39;0.20;;;0.10;;
84484;SDS011;74707;42.864;0.362;2023-12-29T05:11:06;0.20;;;0.20;;
84484;SDS011;74707;42.864;0.362;2023-12-29T05:13:32;0.20;;;0.20;;
84484;SDS011;74707;42.864;0.362;2023-12-29T05:15:58;0.10;;;0.10;;
84484;SDS011;74707;42.864;0.362;2023-12-29T05:18:24;0.43;;;0.30;;
84484;SDS011;74707;42.864;0.362;2023-12-29T05:20:52;0.28;;;0.28;;
84484;SDS011;74707;42.864;0.362;2023-12-29T05:23:19;0.10;;;0.10;;
84484;SDS011;74707;42.864;0.362;2023-12-29T05:25:45;0.20;;;0.20;;
84484;SDS011;74707;42.864;0.362;2023-12-29T05:28:11;0.20;;;0.20;;
84484;SDS011;74707;42.864;0.362;2023-12-29T05:30:38;0.10;;;0.10;;
84484;SDS011;74707;42.864;0.362;2023-12-29T05:33:04;0.47;;;0.28;;
84484;SDS011;74707;42.864;0.362;2023-12-29T05:35:30;0.10;;;0.10;;
84484;SDS011;74707;42.864;0.362;2023-12-29T05:37:56;0.43;;;0.20;;
84484;SDS011;74707;42.864;0.362;2023-12-29T05:40:22;0.20;;;0.20;;
84484;SDS011;74707;42.864;0.362;2023-12-29T05:42:48;5.28;;;0.40;;
84484;SDS011;74707;42.864;0.362;2023-12-29T05:45:17;0.43;;;0.38;;
84484;SDS011;74707;42.864;0.362;2023-12-29T05:47:43;0.20;;;0.20;;
84484;SDS011;74707;42.864;0.362;2023-12-29T05:50:09;2.38;;;0.20;;
84484;SDS011;74707;42.864;0.362;2023-12-29T05:52:36;0.20;;;0.20;;
84484;SDS011;74707;42.864;0.362;2023-12-29T05:55:02;0.13;;;0.13;;
84484;SDS011;74707;42.864;0.362;2023-12-29T05:57:28;0.10;;;0.10;;
84484;SDS011;74707;42.864;0.362;2023-12-29T05:59:54;0.10;;;0.10;;
84484;SDS011;74707;42.864;0.362;2023-12-29T06:02:20;0.17;;;0.17;;
84484;SDS011;74707;42.864;0.362;2023-12-29T06:04:46;0.20;;;0.20;;
84484;SDS011;74707;42.864;0.362;2023-12-29T06:07:12;0.15;;;0.15;;
84484;SDS011;74707;42.864;0.362;2023-12-29T06:09:38;0.20;;;0.20;;
84484;SDS011;74707;42.864;0.362;2023-12-29T06:12:05;0.25;;;0.22;;
84484;SDS011;74707;42.864;0.362;2023-12-29T06:14:31;0.43;;;0.20;;
84484;SDS011;74707;42.864;0.362;2023-12-29T06:16:57;0.10;;;0.10;;
84484;SDS011;74707;42.864;0.362;2023-12-29T06:19:23;0.20;;;0.20;;
84484;SDS011;74707;42.864;0.362;2023-12-29T06:21:49;0.10;;;0.10;;
84484;SDS011;74707;42.864;0.362;2023-12-29T06:24:15;4.18;;;0.55;;
84484;SDS011;74707;42.864;0.362;2023-12-29T06:26:41;0.20;;;0.20;;
84484;SDS011;74707;42.864;0.362;2023-12-29T06:29:09;0.20;;;0.20;;
84484;SDS011;74707;42.864;0.362;2023-12-29T06:31:36;0.28;;;0.10;;
84484;SDS011;74707;42.864;0.362;2023-12-29T06:34:05;0.10;;;0.10;;
84484;SDS011;74707;42.864;0.362;2023-12-29T06:36:31;1.45;;;0.40;;
84484;SDS011;74707;42.864;0.362;2023-12-29T06:38:57;0.17;;;0.17;;
84484;SDS011;74707;42.864;0.362;2023-12-29T06:41:24;2.95;;;0.20;;
84484;SDS011;74707;42.864;0.362;2023-12-29T06:43:50;0.45;;;0.10;;
84484;SDS011;74707;42.864;0.362;2023-12-29T06:46:16;0.13;;;0.10;;
84484;SDS011;74707;42.864;0.362;2023-12-29T06:48:42;0.70;;;0.20;;
84484;SDS011;74707;42.864;0.362;2023-12-29T06:51:08;0.80;;;0.28;;
84484;SDS011;74707;42.864;0.362;2023-12-29T06:53:36;0.85;;;0.43;;
84484;SDS011;74707;42.864;0.362;2023-12-29T06:56:02;0.22;;;0.13;;
84484;SDS011;74707;42.864;0.362;2023-12-29T06:58:28;0.10;;;0.10;;
84484;SDS011;74707;42.864;0.362;2023-12-29T07:00:56;0.10;;;0.10;;
84484;SDS011;74707;42.864;0.362;2023-12-29T07:03:22;0.20;;;0.20;;
84484;SDS011;74707;42.864;0.362;2023-12-29T07:05:49;0.25;;;0.25;;
84484;SDS011;74707;42.864;0.362;2023-12-29T07:08:15;3.42;;;0.10;;
84484;SDS011;74707;42.864;0.362;2023-12-29T07:10:41;0.60;;;0.57;;
84484;SDS011;74707;42.864;0.362;2023-12-29T07:13:07;0.20;;;0.20;;
84484;SDS011;74707;42.864;0.362;2023-12-29T07:15:33;0.30;;;0.20;;
84484;SDS011;74707;42.864;0.362;2023-12-29T07:17:59;0.47;;;0.30;;
84484;SDS011;74707;42.864;0.362;2023-12-29T07:20:25;0.10;;;0.10;;
84484;SDS011;74707;42.864;0.362;2023-12-29T07:22:51;0.10;;;0.10;;
84484;SDS011;74707;42.864;0.362;2023-12-29T07:25:18;0.20;;;0.10;;
84484;SDS011;74707;42.864;0.362;2023-12-29T07:27:44;0.25;;;0.10;;
84484;SDS011;74707;42.864;0.362;2023-12-29T07:30:10;0.30;;;0.13;;
84484;SDS011;74707;42.864;0.362;2023-12-29T07:32:37;0.15;;;0.15;;
84484;SDS011;74707;42.864;0.362;2023-12-29T07:35:03;0.25;;;0.20;;
84484;SDS011;74707;42.864;0.362;2023-12-29T07:37:29;0.25;;;0.25;;
84484;SDS011;74707;42.864;0.362;2023-12-29T07:39:55;0.30;;;0.30;;
84484;SDS011;74707;42.864;0.362;2023-12-29T07:42:21;0.20;;;0.20;;
84484;SDS011;74707;42.864;0.362;2023-12-29T07:44:47;0.63;;;0.20;;
84484;SDS011;74707;42.864;0.362;2023-12-29T07:47:13;0.50;;;0.30;;
84484;SDS011;74707;42.864;0.362;2023-12-29T07:49:41;0.13;;;0.13;;
84484;SDS011;74707;42.864;0.362;2023-12-29T07:52:07;0.25;;;0.25;;
84484;SDS011;74707;42.864;0.362;2023-12-29T07:54:34;0.43;;;0.40;;
84484;SDS011;74707;42.864;0.362;2023-12-29T07:57:00;2.30;;;1.63;;
84484;SDS011;74707;42.864;0.362;2023-12-29T07:59:26;3.13;;;1.70;;
84484;SDS011;74707;42.864;0.362;2023-12-29T08:01:52;2.80;;;1.77;;
84484;SDS011;74707;42.864;0.362;2023-12-29T08:04:18;4.45;;;4.05;;
84484;SDS011;74707;42.864;0.362;2023-12-29T08:06:44;0.60;;;0.60;;
84484;SDS011;74707;42.864;0.362;2023-12-29T08:09:10;0.70;;;0.70;;
84484;SDS011;74707;42.864;0.362;2023-12-29T08:11:36;0.75;;;0.30;;
84484;SDS011;74707;42.864;0.362;2023-12-29T08:14:03;0.32;;;0.32;;
84484;SDS011;74707;42.864;0.362;2023-12-29T08:16:29;6.60;;;2.67;;
84484;SDS011;74707;42.864;0.362;2023-12-29T08:18:55;1.17;;;0.80;;
84484;SDS011;74707;42.864;0.362;2023-12-29T08:21:21;1.20;;;0.98;;
84484;SDS011;74707;42.864;0.362;2023-12-29T08:23:48;0.38;;;0.30;;
84484;SDS011;74707;42.864;0.362;2023-12-29T08:26:14;0.25;;;0.20;;
84484;SDS011;74707;42.864;0.362;2023-12-29T08:28:41;0.30;;;0.30;;
84484;SDS011;74707;42.864;0.362;2023-12-29T08:31:07;0.30;;;0.30;;
84484;SDS011;74707;42.864;0.362;2023-12-29T08:33:33;0.32;;;0.20;;
84484;SDS011;74707;42.864;0.362;2023-12-29T08:36:01;1.67;;;1.42;;
84484;SDS011;74707;42.864;0.362;2023-12-29T08:38:28;1.35;;;1.00;;
84484;SDS011;74707;42.864;0.362;2023-12-29T08:40:55;1.60;;;1.40;;
84484;SDS011;74707;42.864;0.362;2023-12-29T08:43:21;1.50;;;0.60;;
84484;SDS011;74707;42.864;0.362;2023-12-29T08:45:47;1.33;;;1.23;;
84484;SDS011;74707;42.864;0.362;2023-12-29T08:48:14;0.60;;;0.60;;
84484;SDS011;74707;42.864;0.362;2023-12-29T08:50:41;0.20;;;0.20;;
84484;SDS011;74707;42.864;0.362;2023-12-29T08:53:08;0.30;;;0.20;;
84484;SDS011;74707;42.864;0.362;2023-12-29T08:55:34;0.25;;;0.25;;
84484;SDS011;74707;42.864;0.362;2023-12-29T08:58:01;0.40;;;0.40;;
84484;SDS011;74707;42.864;0.362;2023-12-29T09:00:27;7.22;;;3.72;;
84484;SDS011;74707;42.864;0.362;2023-12-29T09:02:55;14.40;;;7.85;;
84484;SDS011;74707;42.864;0.362;2023-12-29T09:05:22;1.40;;;1.27;;
84484;SDS011;74707;42.864;0.362;2023-12-29T09:07:48;3.05;;;1.95;;
84484;SDS011;74707;42.864;0.362;2023-12-29T09:10:14;25.48;;;13.25;;
84484;SDS011;74707;42.864;0.362;2023-12-29T09:12:40;14.68;;;7.30;;
84484;SDS011;74707;42.864;0.362;2023-12-29T09:15:07;12.30;;;7.40;;
84484;SDS011;74707;42.864;0.362;2023-12-29T09:17:34;12.18;;;7.25;;
84484;SDS011;74707;42.864;0.362;2023-12-29T09:20:00;4.15;;;2.83;;
84484;SDS011;74707;42.864;0.362;2023-12-29T09:22:26;2.58;;;1.77;;
84484;SDS011;74707;42.864;0.362;2023-12-29T09:24:53;3.63;;;2.60;;
84484;SDS011;74707;42.864;0.362;2023-12-29T09:27:20;9.55;;;5.60;;
84484;SDS011;74707;42.864;0.362;2023-12-29T09:29:46;8.02;;;5.15;;
84484;SDS011;74707;42.864;0.362;2023-12-29T09:32:12;8.85;;;5.43;;
84484;SDS011;74707;42.864;0.362;2023-12-29T09:34:39;6.10;;;2.80;;
84484;SDS011;74707;42.864;0.362;2023-12-29T09:37:05;6.15;;;4.32;;
84484;SDS011;74707;42.864;0.362;2023-12-29T09:39:31;9.82;;;5.13;;
84484;SDS011;74707;42.864;0.362;2023-12-29T09:41:58;7.00;;;4.93;;
84484;SDS011;74707;42.864;0.362;2023-12-29T09:44:28;4.30;;;3.03;;
84484;SDS011;74707;42.864;0.362;2023-12-29T09:46:57;6.95;;;2.22;;
84484;SDS011;74707;42.864;0.362;2023-12-29T09:49:26;5.68;;;3.40;;
84484;SDS011;74707;42.864;0.362;2023-12-29T09:51:53;6.38;;;2.58;;
84484;SDS011;74707;42.864;0.362;2023-12-29T09:54:19;2.95;;;1.67;;
84484;SDS011;74707;42.864;0.362;2023-12-29T09:56:45;2.47;;;1.70;;
84484;SDS011;74707;42.864;0.362;2023-12-29T09:59:11;6.43;;;3.53;;
84484;SDS011;74707;42.864;0.362;2023-12-29T10:01:39;18.90;;;11.25;;
84484;SDS011;74707;42.864;0.362;2023-12-29T10:04:07;10.05;;;4.50;;
84484;SDS011;74707;42.864;0.362;2023-12-29T10:06:34;7.20;;;2.92;;
84484;SDS011;74707;42.864;0.362;2023-12-29T10:09:02;5.07;;;3.42;;
84484;SDS011;74707;42.864;0.362;2023-12-29T10:11:30;9.07;;;5.43;;
84484;SDS011;74707;42.864;0.362;2023-12-29T10:14:00;11.43;;;5.45;;
84484;SDS011;74707;42.864;0.362;2023-12-29T10:16:32;8.13;;;4.38;;
84484;SDS011;74707;42.864;0.362;2023-12-29T10:19:17;3.83;;;2.90;;
84484;SDS011;74707;42.864;0.362;2023-12-29T10:24:21;6.32;;;3.25;;
84484;SDS011;74707;42.864;0.362;2023-12-29T10:26:48;6.20;;;2.55;;
84484;SDS011;74707;42.864;0.362;2023-12-29T10:29:15;3.83;;;2.03;;
84484;SDS011;74707;42.864;0.362;2023-12-29T10:31:43;1.92;;;1.73;;
84484;SDS011;74707;42.864;0.362;2023-12-29T10:34:22;3.00;;;1.80;;
84484;SDS011;74707;42.864;0.362;2023-12-29T10:36:57;1.75;;;1.10;;
84484;SDS011;74707;42.864;0.362;2023-12-29T10:39:23;1.27;;;0.80;;
84484;SDS011;74707;42.864;0.362;2023-12-29T10:41:50;1.30;;;0.93;;
84484;SDS011;74707;42.864;0.362;2023-12-29T10:44:16;5.78;;;2.55;;
84484;SDS011;74707;42.864;0.362;2023-12-29T10:46:42;3.75;;;1.98;;
84484;SDS011;74707;42.864;0.362;2023-12-29T10:49:09;4.30;;;2.03;;
84484;SDS011;74707;42.864;0.362;2023-12-29T10:51:35;11.48;;;4.50;;
84484;SDS011;74707;42.864;0.362;2023-12-29T10:54:02;83.03;;;34.80;;
84484;SDS011;74707;42.864;0.362;2023-12-29T10:56:29;98.10;;;42.03;;
84484;SDS011;74707;42.864;0.362;2023-12-29T11:01:25;25.40;;;11.88;;
84484;SDS011;74707;42.864;0.362;2023-12-29T11:03:58;27.77;;;12.40;;
84484;SDS011;74707;42.864;0.362;2023-12-29T11:06:25;24.95;;;13.65;;
84484;SDS011;74707;42.864;0.362;2023-12-29T11:08:51;8.13;;;3.75;;
84484;SDS011;74707;42.864;0.362;2023-12-29T11:11:18;4.03;;;1.75;;
84484;SDS011;74707;42.864;0.362;2023-12-29T11:13:45;2.08;;;1.40;;
84484;SDS011;74707;42.864;0.362;2023-12-29T11:16:12;3.50;;;1.80;;
84484;SDS011;74707;42.864;0.362;2023-12-29T11:18:40;3.00;;;1.10;;
84484;SDS011;74707;42.864;0.362;2023-12-29T11:21:07;4.95;;;1.83;;
84484;SDS011;74707;42.864;0.362;2023-12-29T11:23:34;4.28;;;2.95;;
84484;SDS011;74707;42.864;0.362;2023-12-29T11:26:00;4.68;;;2.60;;
84484;SDS011;74707;42.864;0.362;2023-12-29T11:28:26;3.75;;;2.58;;
84484;SDS011;74707;42.864;0.362;2023-12-29T11:30:52;4.25;;;2.25;;
84484;SDS011;74707;42.864;0.362;2023-12-29T11:33:21;2.97;;;1.52;;
84484;SDS011;74707;42.864;0.362;2023-12-29T11:35:55;2.45;;;1.50;;
84484;SDS011;74707;42.864;0.362;2023-12-29T11:38:24;1.80;;;1.30;;
84484;SDS011;74707;42.864;0.362;2023-12-29T11:40:57;8.70;;;3.00;;
84484;SDS011;74707;42.864;0.362;2023-12-29T11:43:28;6.25;;;3.72;;
84484;SDS011;74707;42.864;0.362;2023-12-29T11:45:54;7.97;;;4.53;;
84484;SDS011;74707;42.864;0.362;2023-12-29T11:53:49;1.65;;;1.40;;
84484;SDS011;74707;42.864;0.362;2023-12-29T11:56:16;2.63;;;1.38;;
84484;SDS011;74707;42.864;0.362;2023-12-29T11:58:42;2.85;;;1.55;;
84484;SDS011;74707;42.864;0.362;2023-12-29T12:01:08;5.57;;;2.35;;
84484;SDS011;74707;42.864;0.362;2023-12-29T12:03:34;4.72;;;2.72;;
84484;SDS011;74707;42.864;0.362;2023-12-29T12:06:01;7.35;;;3.40;;
84484;SDS011;74707;42.864;0.362;2023-12-29T12:08:34;10.18;;;4.28;;
84484;SDS011;74707;42.864;0.362;2023-12-29T12:13:45;8.98;;;4.45;;
84484;SDS011;74707;42.864;0.362;2023-12-29T12:18:56;4.93;;;2.17;;
84484;SDS011;74707;42.864;0.362;2023-12-29T12:21:23;1.95;;;1.35;;
84484;SDS011;74707;42.864;0.362;2023-12-29T12:23:50;2.88;;;1.08;;
84484;SDS011;74707;42.864;0.362;2023-12-29T12:26:17;1.23;;;0.70;;
84484;SDS011;74707;42.864;0.362;2023-12-29T12:28:44;0.40;;;0.40;;
84484;SDS011;74707;42.864;0.362;2023-12-29T12:31:12;1.25;;;0.80;;
84484;SDS011;74707;42.864;0.362;2023-12-29T12:33:38;3.67;;;1.58;;
84484;SDS011;74707;42.864;0.362;2023-12-29T12:36:05;2.33;;;1.20;;
84484;SDS011;74707;42.864;0.362;2023-12-29T12:38:31;3.72;;;1.63;;
84484;SDS011;74707;42.864;0.362;2023-12-29T12:41:09;9.75;;;1.35;;
84484;SDS011;74707;42.864;0.362;2023-12-29T12:43:37;1.02;;;0.88;;
84484;SDS011;74707;42.864;0.362;2023-12-29T12:46:06;1.77;;;0.52;;
84484;SDS011;74707;42.864;0.362;2023-12-29T12:48:35;1.23;;;0.80;;
84484;SDS011;74707;42.864;0.362;2023-12-29T12:51:06;1.70;;;0.93;;
84484;SDS011;74707;42.864;0.362;2023-12-29T12:53:32;2.20;;;1.45;;
84484;SDS011;74707;42.864;0.362;2023-12-29T12:55:59;2.80;;;1.75;;
84484;SDS011;74707;42.864;0.362;2023-12-29T12:58:25;4.53;;;2.42;;
84484;SDS011;74707;42.864;0.362;2023-12-29T13:00:53;3.97;;;2.28;;
84484;SDS011;74707;42.864;0.362;2023-12-29T13:03:23;3.65;;;2.10;;
84484;SDS011;74707;42.864;0.362;2023-12-29T13:05:50;6.03;;;2.35;;
84484;SDS011;74707;42.864;0.362;2023-12-29T13:08:16;5.03;;;2.70;;
84484;SDS011;74707;42.864;0.362;2023-12-29T13:10:43;3.70;;;2.33;;
84484;SDS011;74707;42.864;0.362;2023-12-29T13:13:09;3.53;;;2.10;;
84484;SDS011;74707;42.864;0.362;2023-12-29T13:15:44;1.70;;;1.60;;
84484;SDS011;74707;42.864;0.362;2023-12-29T13:18:10;2.50;;;1.70;;
84484;SDS011;74707;42.864;0.362;2023-12-29T13:21:10;5.15;;;2.17;;
84484;SDS011;74707;42.864;0.362;2023-12-29T13:23:29;3.42;;;1.92;;
84484;SDS011;74707;42.864;0.362;2023-12-29T13:26:05;1.75;;;1.27;;
84484;SDS011;74707;42.864;0.362;2023-12-29T13:28:33;2.53;;;1.60;;
84484;SDS011;74707;42.864;0.362;2023-12-29T13:31:00;2.72;;;1.60;;
84484;SDS011;74707;42.864;0.362;2023-12-29T13:33:29;9.32;;;6.55;;
84484;SDS011;74707;42.864;0.362;2023-12-29T13:36:06;25.08;;;14.15;;
84484;SDS011;74707;42.864;0.362;2023-12-29T13:38:33;6.40;;;4.20;;
84484;SDS011;74707;42.864;0.362;2023-12-29T13:41:04;4.90;;;2.83;;
84484;SDS011;74707;42.864;0.362;2023-12-29T13:45:58;3.53;;;2.15;;
84484;SDS011;74707;42.864;0.362;2023-12-29T13:48:25;2.47;;;1.35;;
84484;SDS011;74707;42.864;0.362;2023-12-29T13:50:52;1.40;;;0.93;;
84484;SDS011;74707;42.864;0.362;2023-12-29T13:53:19;1.10;;;0.95;;
84484;SDS011;74707;42.864;0.362;2023-12-29T13:55:45;15.93;;;7.10;;
84484;SDS011;74707;42.864;0.362;2023-12-29T13:58:12;2.15;;;1.30;;
84484;SDS011;74707;42.864;0.362;2023-12-29T14:00:41;3.08;;;1.75;;
84484;SDS011;74707;42.864;0.362;2023-12-29T14:03:15;3.85;;;1.63;;
84484;SDS011;74707;42.864;0.362;2023-12-29T14:08:16;1.80;;;1.30;;
84484;SDS011;74707;42.864;0.362;2023-12-29T14:10:45;2.88;;;0.85;;
84484;SDS011;74707;42.864;0.362;2023-12-29T14:13:12;7.70;;;6.90;;
84484;SDS011;74707;42.864;0.362;2023-12-29T14:15:40;2.15;;;1.00;;
84484;SDS011;74707;42.864;0.362;2023-12-29T14:20:36;3.25;;;1.15;;
84484;SDS011;74707;42.864;0.362;2023-12-29T14:23:05;1.05;;;0.80;;
84484;SDS011;74707;42.864;0.362;2023-12-29T14:25:35;1.58;;;0.77;;
84484;SDS011;74707;42.864;0.362;2023-12-29T14:28:02;0.47;;;0.45;;
84484;SDS011;74707;42.864;0.362;2023-12-29T14:30:28;0.77;;;0.65;;
84484;SDS011;74707;42.864;0.362;2023-12-29T14:32:59;0.93;;;0.47;;
84484;SDS011;74707;42.864;0.362;2023-12-29T14:35:25;0.55;;;0.43;;
84484;SDS011;74707;42.864;0.362;2023-12-29T14:37:51;1.75;;;0.60;;
84484;SDS011;74707;42.864;0.362;2023-12-29T14:40:17;0.82;;;0.40;;
84484;SDS011;74707;42.864;0.362;2023-12-29T14:42:45;1.80;;;1.33;;
84484;SDS011;74707;42.864;0.362;2023-12-29T14:45:11;0.50;;;0.50;;
84484;SDS011;74707;42.864;0.362;2023-12-29T14:47:37;1.58;;;0.20;;
84484;SDS011;74707;42.864;0.362;2023-12-29T14:50:04;0.32;;;0.30;;
84484;SDS011;74707;42.864;0.362;2023-12-29T14:52:30;7.63;;;6.93;;
84484;SDS011;74707;42.864;0.362;2023-12-29T14:54:56;3.95;;;3.10;;
84484;SDS011;74707;42.864;0.362;2023-12-29T14:57:22;3.80;;;2.47;;
84484;SDS011;74707;42.864;0.362;2023-12-29T14:59:48;3.25;;;2.20;;
84484;SDS011;74707;42.864;0.362;2023-12-29T15:02:15;1.10;;;0.60;;
84484;SDS011;74707;42.864;0.362;2023-12-29T15:04:41;0.30;;;0.30;;
84484;SDS011;74707;42.864;0.362;2023-12-29T15:07:07;0.68;;;0.40;;
84484;SDS011;74707;42.864;0.362;2023-12-29T15:09:33;12.07;;;6.72;;